A504 HMS Argo — SMOH — position and weather

sailwx.info

Track history (hours):
 
Tides and Currents Weather Stations Pressure Air Temp Water Temp Dewpoint Dewpoint Depression Visibility Wind Speed Wind Dir Waves Ship Positions

A504 HMS Argo

Last reported at 2018-Apr-22 18:16 UTC. Time now 2018-Apr-25 20:11 UTC.
Position N 56°09' E 015°35'.

Length 26 m.

Type: Military. MMSI: 265591600.

Date/timePositionNaut miles runAvg speedWind from/ knotsBaromVisibWave heightAir tempDewpointWater temp
2018-Apr-22 18:16N 56°09' E 015°35'0 0.0
2018-Apr-22 18:00N 56°09' E 015°35'4 8.3
2018-Apr-22 17:30N 56°07' E 015°29'5 5.1
2018-Apr-22 16:35N 56°05' E 015°22'220.0
2018-Apr-22 16:30N 56°05' E 015°19'1020.0
2018-Apr-22 16:00N 56°06' E 015°01'3 5.8
2018-Apr-22 15:30N 56°06' E 014°56'1020.1
2018-Apr-22 15:01N 56°04' E 015°13'1020.1
2018-Apr-22 14:30N 56°02' E 015°31'1019.7
2018-Apr-22 14:01N 56°00' E 015°48'1020.0
2018-Apr-22 13:30N 56°08' E 015°59'1019.5
2018-Apr-22 13:00N 56°17' E 016°07'1019.6
2018-Apr-22 12:30N 56°26' E 016°13'  
2018-Apr-16 15:42N 57°12' E 016°45'5119.3
2018-Apr-16 13:02N 56°24' E 016°13'320.1
2018-Apr-16 12:54N 56°22' E 016°11'820.0
2018-Apr-16 12:30N 56°14' E 016°07'1019.7
2018-Apr-16 12:00N 56°06' E 015°57'917.5
2018-Apr-16 11:30N 56°01' E 015°44'816.6
2018-Apr-16 11:00N 56°07' E 015°35'  
Track history (hours):
 
Tides and Currents Weather Stations Pressure Air Temp Water Temp Dewpoint Dewpoint Depression Visibility Wind Speed Wind Dir Waves Ship Positions

A504 HMS Argo

Last reported at 2018-Apr-22 18:16 UTC. Time now 2018-Apr-25 20:11 UTC.
Position N 56°09' E 015°35'.

Length 26 m.

Type: Military. MMSI: 265591600.

Date/timePositionNaut miles runAvg speedWind from/ knotsBaromVisibWave heightAir tempDewpointWater temp
2018-Apr-22 18:16N 56°09' E 015°35'0 0.0
2018-Apr-22 18:00N 56°09' E 015°35'4 8.3
2018-Apr-22 17:30N 56°07' E 015°29'5 5.1
2018-Apr-22 16:35N 56°05' E 015°22'220.0
2018-Apr-22 16:30N 56°05' E 015°19'1020.0
2018-Apr-22 16:00N 56°06' E 015°01'3 5.8
2018-Apr-22 15:30N 56°06' E 014°56'1020.1
2018-Apr-22 15:01N 56°04' E 015°13'1020.1
2018-Apr-22 14:30N 56°02' E 015°31'1019.7
2018-Apr-22 14:01N 56°00' E 015°48'1020.0
2018-Apr-22 13:30N 56°08' E 015°59'1019.5
2018-Apr-22 13:00N 56°17' E 016°07'1019.6
2018-Apr-22 12:30N 56°26' E 016°13'  
2018-Apr-16 15:42N 57°12' E 016°45'5119.3
2018-Apr-16 13:02N 56°24' E 016°13'320.1
2018-Apr-16 12:54N 56°22' E 016°11'820.0
2018-Apr-16 12:30N 56°14' E 016°07'1019.7
2018-Apr-16 12:00N 56°06' E 015°57'917.5
2018-Apr-16 11:30N 56°01' E 015°44'816.6
2018-Apr-16 11:00N 56°07' E 015°35'  

Dump ship's entire track history